メインページ
METAR-TAF:

METAR-TAF

空港 :

ハイファ空港

ハイファ, イスラエル

緯度: 32-48N, 経度: 035-02E, 海抜: 8m

現時点の気象観測

当レポートは22分前の08:50(UTC)に作成
南西の風 12kt、南/南西から西の間で変化する
気温 31°C
湿度 66%
気圧 1005 hPa
視程10km以上
高度2500ftの雲はほとんどない

METAR: LLHA 230850Z 23012KT 200V270 9999 FEW025 31/24 Q1005

時間: 12:12 (09:12 UTC)

予報

当レポートは3時間57分前の05:15(UTC)に作成
予報は23日の 06時(UTC)から 24日の 06時(UTC)まで有効
南西の風 5kt
視程10km以上
高度1700ftの雲は散在している
23日の 07時(UTC)から 23日の 09時(UTC)まで徐々に
西の風 10kt
高度2200ftの雲はほとんどない
23日の 16時(UTC)から 23日の 19時(UTC)まで徐々に
南西の風 5kt
高度1700ftの雲は散在している
確率 30%
24日の 00時(UTC)から 24日の 05時(UTC)まで
の風 5kt
高度1200ftの雲は散在している

TAF: LLHA 230515Z 2306/2406 23005KT 9999 SCT017 BECMG 2307/2309 26010KT FEW022 BECMG 2316/2319 23005KT SCT017 PROB30 2400/2405 17005KT SCT012 TX32/2312Z TN25/2403Z

4,000以上の空港の気象観測と天気予報(METAR報とTAF報)

利用可能な観測所は地図上に黄色い丸と赤い丸で示す。

丸の上にカーソルを重ねると観測所名を参照できる。

次にクリックすると気象観測と天気予報を参照できる。

マップの切り替え:黒色「×」印の緑ボタンをクリックして拡大、「-」印の緑ボタンをクリックして縮小、緑色の三角印をクリックして隣りの地図に切り替え


METAR-TAF: